sensor_id;sensor_type;location;lat;lon;timestamp;temperature;humidity
20504;DHT22;10410;51.046;6.980;2022-12-20T00:06:05;10.00;99.90
20504;DHT22;10410;51.046;6.980;2022-12-20T00:13:06;10.10;99.90
20504;DHT22;10410;51.046;6.980;2022-12-20T00:20:07;10.20;99.90
20504;DHT22;10410;51.046;6.980;2022-12-20T00:27:08;10.30;99.90
20504;DHT22;10410;51.046;6.980;2022-12-20T00:34:08;10.30;99.90
20504;DHT22;10410;51.046;6.980;2022-12-20T00:41:13;10.40;99.90
20504;DHT22;10410;51.046;6.980;2022-12-20T00:48:14;10.50;99.90
20504;DHT22;10410;51.046;6.980;2022-12-20T00:55:14;10.60;99.90
20504;DHT22;10410;51.046;6.980;2022-12-20T01:02:15;10.60;99.90
20504;DHT22;10410;51.046;6.980;2022-12-20T01:09:16;10.60;99.90
20504;DHT22;10410;51.046;6.980;2022-12-20T01:16:22;10.60;99.90
20504;DHT22;10410;51.046;6.980;2022-12-20T01:23:23;10.60;99.90
20504;DHT22;10410;51.046;6.980;2022-12-20T01:30:24;10.50;99.90
20504;DHT22;10410;51.046;6.980;2022-12-20T01:37:25;10.50;99.90
20504;DHT22;10410;51.046;6.980;2022-12-20T01:51:26;10.40;99.90
20504;DHT22;10410;51.046;6.980;2022-12-20T01:58:28;10.30;99.90
20504;DHT22;10410;51.046;6.980;2022-12-20T02:05:34;10.20;99.90
20504;DHT22;10410;51.046;6.980;2022-12-20T02:12:42;10.20;99.90
20504;DHT22;10410;51.046;6.980;2022-12-20T02:27:25;10.10;99.90
20504;DHT22;10410;51.046;6.980;2022-12-20T02:34:34;9.90;99.90
20504;DHT22;10410;51.046;6.980;2022-12-20T02:41:39;9.80;99.90
20504;DHT22;10410;51.046;6.980;2022-12-20T02:48:41;9.70;99.90
20504;DHT22;10410;51.046;6.980;2022-12-20T02:55:45;9.60;99.90
20504;DHT22;10410;51.046;6.980;2022-12-20T03:02:48;9.50;99.90
20504;DHT22;10410;51.046;6.980;2022-12-20T03:10:09;9.40;99.90
20504;DHT22;10410;51.046;6.980;2022-12-20T03:17:10;9.30;99.90
20504;DHT22;10410;51.046;6.980;2022-12-20T03:24:10;9.30;99.90
20504;DHT22;10410;51.046;6.980;2022-12-20T03:31:12;9.30;99.90
20504;DHT22;10410;51.046;6.980;2022-12-20T03:38:18;9.30;99.90
20504;DHT22;10410;51.046;6.980;2022-12-20T03:45:19;9.30;99.90
20504;DHT22;10410;51.046;6.980;2022-12-20T03:52:20;9.30;99.90
20504;DHT22;10410;51.046;6.980;2022-12-20T03:59:20;9.40;99.90
20504;DHT22;10410;51.046;6.980;2022-12-20T04:06:22;9.40;99.90
20504;DHT22;10410;51.046;6.980;2022-12-20T04:13:23;9.30;99.90
20504;DHT22;10410;51.046;6.980;2022-12-20T04:20:24;9.30;99.90
20504;DHT22;10410;51.046;6.980;2022-12-20T04:27:36;9.20;99.90
20504;DHT22;10410;51.046;6.980;2022-12-20T04:34:39;9.20;99.90
20504;DHT22;10410;51.046;6.980;2022-12-20T04:41:39;9.10;99.90
20504;DHT22;10410;51.046;6.980;2022-12-20T04:48:43;9.10;99.90
20504;DHT22;10410;51.046;6.980;2022-12-20T04:56:02;9.10;99.90
20504;DHT22;10410;51.046;6.980;2022-12-20T05:03:03;9.10;99.90
20504;DHT22;10410;51.046;6.980;2022-12-20T05:10:04;9.10;99.90
20504;DHT22;10410;51.046;6.980;2022-12-20T05:17:04;9.10;99.90
20504;DHT22;10410;51.046;6.980;2022-12-20T05:24:05;9.10;99.90
20504;DHT22;10410;51.046;6.980;2022-12-20T05:31:38;9.10;99.90
20504;DHT22;10410;51.046;6.980;2022-12-20T05:38:38;9.20;99.90
20504;DHT22;10410;51.046;6.980;2022-12-20T05:45:46;9.10;99.90
20504;DHT22;10410;51.046;6.980;2022-12-20T05:52:50;9.20;99.90
20504;DHT22;10410;51.046;6.980;2022-12-20T05:59:51;9.20;99.90
20504;DHT22;10410;51.046;6.980;2022-12-20T06:06:56;9.20;99.90
20504;DHT22;10410;51.046;6.980;2022-12-20T06:13:56;9.30;99.90
20504;DHT22;10410;51.046;6.980;2022-12-20T06:20:56;9.40;99.90
20504;DHT22;10410;51.046;6.980;2022-12-20T06:27:57;9.40;99.90
20504;DHT22;10410;51.046;6.980;2022-12-20T06:34:58;9.40;99.90
20504;DHT22;10410;51.046;6.980;2022-12-20T06:41:58;9.50;99.90
20504;DHT22;10410;51.046;6.980;2022-12-20T06:48:59;9.50;99.90
20504;DHT22;10410;51.046;6.980;2022-12-20T06:56:01;9.60;99.90
20504;DHT22;10410;51.046;6.980;2022-12-20T07:03:04;9.60;99.90
20504;DHT22;10410;51.046;6.980;2022-12-20T07:10:05;9.60;99.90
20504;DHT22;10410;51.046;6.980;2022-12-20T07:17:05;9.60;99.90
20504;DHT22;10410;51.046;6.980;2022-12-20T07:24:07;9.60;99.90
20504;DHT22;10410;51.046;6.980;2022-12-20T07:31:08;9.60;99.90
20504;DHT22;10410;51.046;6.980;2022-12-20T07:38:08;9.70;99.90
20504;DHT22;10410;51.046;6.980;2022-12-20T07:45:08;9.70;99.90
20504;DHT22;10410;51.046;6.980;2022-12-20T07:52:11;9.60;99.90
20504;DHT22;10410;51.046;6.980;2022-12-20T07:59:13;9.60;99.90
20504;DHT22;10410;51.046;6.980;2022-12-20T08:06:16;9.70;99.90
20504;DHT22;10410;51.046;6.980;2022-12-20T08:13:17;9.60;99.90
20504;DHT22;10410;51.046;6.980;2022-12-20T08:20:17;9.60;99.90
20504;DHT22;10410;51.046;6.980;2022-12-20T08:27:18;9.60;99.90
20504;DHT22;10410;51.046;6.980;2022-12-20T08:34:19;9.70;99.90
20504;DHT22;10410;51.046;6.980;2022-12-20T08:41:19;9.70;99.90
20504;DHT22;10410;51.046;6.980;2022-12-20T08:48:22;9.80;99.90
20504;DHT22;10410;51.046;6.980;2022-12-20T08:55:22;9.80;99.90
20504;DHT22;10410;51.046;6.980;2022-12-20T09:02:28;9.80;99.90
20504;DHT22;10410;51.046;6.980;2022-12-20T09:09:29;9.90;99.90
20504;DHT22;10410;51.046;6.980;2022-12-20T09:16:31;9.90;99.90
20504;DHT22;10410;51.046;6.980;2022-12-20T09:23:32;10.00;99.90
20504;DHT22;10410;51.046;6.980;2022-12-20T09:30:34;10.00;99.90
20504;DHT22;10410;51.046;6.980;2022-12-20T09:37:34;10.00;99.90
20504;DHT22;10410;51.046;6.980;2022-12-20T09:44:37;10.00;99.90
20504;DHT22;10410;51.046;6.980;2022-12-20T09:59:04;10.00;99.90
20504;DHT22;10410;51.046;6.980;2022-12-20T10:14:01;10.10;99.90
20504;DHT22;10410;51.046;6.980;2022-12-20T10:21:27;10.20;99.90
20504;DHT22;10410;51.046;6.980;2022-12-20T10:28:33;10.30;99.90
20504;DHT22;10410;51.046;6.980;2022-12-20T10:35:38;10.30;99.90
20504;DHT22;10410;51.046;6.980;2022-12-20T10:42:40;10.30;99.90
20504;DHT22;10410;51.046;6.980;2022-12-20T10:49:42;10.30;99.90
20504;DHT22;10410;51.046;6.980;2022-12-20T10:56:56;10.30;99.90
20504;DHT22;10410;51.046;6.980;2022-12-20T11:04:00;10.30;99.90
20504;DHT22;10410;51.046;6.980;2022-12-20T11:11:11;10.40;99.90
20504;DHT22;10410;51.046;6.980;2022-12-20T11:18:42;10.50;99.90
20504;DHT22;10410;51.046;6.980;2022-12-20T11:40:17;10.60;99.90
20504;DHT22;10410;51.046;6.980;2022-12-20T11:54:45;10.70;99.90
20504;DHT22;10410;51.046;6.980;2022-12-20T12:01:59;10.70;99.90
20504;DHT22;10410;51.046;6.980;2022-12-20T12:09:21;10.70;99.90
20504;DHT22;10410;51.046;6.980;2022-12-20T12:16:41;10.80;99.90
20504;DHT22;10410;51.046;6.980;2022-12-20T12:24:05;10.70;99.90
20504;DHT22;10410;51.046;6.980;2022-12-20T12:31:13;10.80;99.90
20504;DHT22;10410;51.046;6.980;2022-12-20T12:45:57;10.80;99.90
20504;DHT22;10410;51.046;6.980;2022-12-20T12:53:05;10.80;99.90
20504;DHT22;10410;51.046;6.980;2022-12-20T13:07:46;10.70;99.90
20504;DHT22;10410;51.046;6.980;2022-12-20T13:14:47;10.70;99.90
20504;DHT22;10410;51.046;6.980;2022-12-20T13:22:14;10.60;99.90
20504;DHT22;10410;51.046;6.980;2022-12-20T13:29:23;10.60;99.90
20504;DHT22;10410;51.046;6.980;2022-12-20T13:36:34;10.60;99.90
20504;DHT22;10410;51.046;6.980;2022-12-20T13:43:40;10.60;99.90
20504;DHT22;10410;51.046;6.980;2022-12-20T13:50:48;10.50;99.90
20504;DHT22;10410;51.046;6.980;2022-12-20T13:57:50;10.50;99.90
20504;DHT22;10410;51.046;6.980;2022-12-20T14:05:54;10.50;99.90
20504;DHT22;10410;51.046;6.980;2022-12-20T14:12:28;10.50;99.90
20504;DHT22;10410;51.046;6.980;2022-12-20T14:19:36;10.50;99.90
20504;DHT22;10410;51.046;6.980;2022-12-20T14:26:40;10.50;99.90
20504;DHT22;10410;51.046;6.980;2022-12-20T14:33:43;10.50;99.90
20504;DHT22;10410;51.046;6.980;2022-12-20T14:40:44;10.50;99.90
20504;DHT22;10410;51.046;6.980;2022-12-20T15:09:59;10.40;99.90
20504;DHT22;10410;51.046;6.980;2022-12-20T15:17:01;10.40;99.90
20504;DHT22;10410;51.046;6.980;2022-12-20T15:24:04;10.40;99.90
20504;DHT22;10410;51.046;6.980;2022-12-20T15:31:12;10.50;99.90
20504;DHT22;10410;51.046;6.980;2022-12-20T15:38:15;10.40;99.90
20504;DHT22;10410;51.046;6.980;2022-12-20T15:45:15;10.40;99.90
20504;DHT22;10410;51.046;6.980;2022-12-20T15:52:19;10.30;99.90
20504;DHT22;10410;51.046;6.980;2022-12-20T15:59:21;10.40;99.90
20504;DHT22;10410;51.046;6.980;2022-12-20T16:06:42;10.40;99.90
20504;DHT22;10410;51.046;6.980;2022-12-20T16:13:43;10.30;99.90
20504;DHT22;10410;51.046;6.980;2022-12-20T16:20:44;10.30;99.90
20504;DHT22;10410;51.046;6.980;2022-12-20T16:27:45;10.30;99.90
20504;DHT22;10410;51.046;6.980;2022-12-20T16:34:46;10.30;99.90
20504;DHT22;10410;51.046;6.980;2022-12-20T16:41:47;10.30;99.90
20504;DHT22;10410;51.046;6.980;2022-12-20T16:48:48;10.30;99.90
20504;DHT22;10410;51.046;6.980;2022-12-20T16:55:48;10.30;99.90
20504;DHT22;10410;51.046;6.980;2022-12-20T17:02:49;10.30;99.90
20504;DHT22;10410;51.046;6.980;2022-12-20T17:09:53;10.20;99.90
20504;DHT22;10410;51.046;6.980;2022-12-20T17:17:12;10.30;99.90
20504;DHT22;10410;51.046;6.980;2022-12-20T17:24:20;10.20;99.90
20504;DHT22;10410;51.046;6.980;2022-12-20T17:31:30;10.20;99.90
20504;DHT22;10410;51.046;6.980;2022-12-20T17:38:30;10.20;99.90
20504;DHT22;10410;51.046;6.980;2022-12-20T17:45:32;10.10;99.90
20504;DHT22;10410;51.046;6.980;2022-12-20T17:52:35;10.10;99.90
20504;DHT22;10410;51.046;6.980;2022-12-20T17:59:35;10.00;99.90
20504;DHT22;10410;51.046;6.980;2022-12-20T18:06:37;10.10;99.90
20504;DHT22;10410;51.046;6.980;2022-12-20T18:13:41;10.00;99.90
20504;DHT22;10410;51.046;6.980;2022-12-20T18:20:42;10.00;99.90
20504;DHT22;10410;51.046;6.980;2022-12-20T18:27:42;10.00;99.90
20504;DHT22;10410;51.046;6.980;2022-12-20T18:34:42;10.00;99.90
20504;DHT22;10410;51.046;6.980;2022-12-20T18:41:42;10.10;99.90
20504;DHT22;10410;51.046;6.980;2022-12-20T18:48:44;10.10;99.90
20504;DHT22;10410;51.046;6.980;2022-12-20T18:55:45;10.10;99.90
20504;DHT22;10410;51.046;6.980;2022-12-20T19:02:48;10.10;99.90
20504;DHT22;10410;51.046;6.980;2022-12-20T19:09:48;10.00;99.90
20504;DHT22;10410;51.046;6.980;2022-12-20T19:16:49;10.10;99.90
20504;DHT22;10410;51.046;6.980;2022-12-20T19:23:53;10.10;99.90
20504;DHT22;10410;51.046;6.980;2022-12-20T19:30:55;10.10;99.90
20504;DHT22;10410;51.046;6.980;2022-12-20T19:37:56;10.00;99.90
20504;DHT22;10410;51.046;6.980;2022-12-20T19:44:56;10.00;99.90
20504;DHT22;10410;51.046;6.980;2022-12-20T19:51:56;10.00;99.90
20504;DHT22;10410;51.046;6.980;2022-12-20T19:58:57;10.00;99.90
20504;DHT22;10410;51.046;6.980;2022-12-20T20:05:57;10.10;99.90
20504;DHT22;10410;51.046;6.980;2022-12-20T20:12:58;10.00;99.90
20504;DHT22;10410;51.046;6.980;2022-12-20T20:19:58;10.10;99.90
20504;DHT22;10410;51.046;6.980;2022-12-20T20:26:59;10.10;99.90
20504;DHT22;10410;51.046;6.980;2022-12-20T20:33:59;10.10;99.90
20504;DHT22;10410;51.046;6.980;2022-12-20T20:40:59;10.20;99.90
20504;DHT22;10410;51.046;6.980;2022-12-20T20:48:00;10.20;99.90
20504;DHT22;10410;51.046;6.980;2022-12-20T20:55:05;10.20;99.90
20504;DHT22;10410;51.046;6.980;2022-12-20T21:02:08;10.30;99.90
20504;DHT22;10410;51.046;6.980;2022-12-20T21:09:08;10.30;99.90
20504;DHT22;10410;51.046;6.980;2022-12-20T21:16:12;10.30;99.90
20504;DHT22;10410;51.046;6.980;2022-12-20T21:23:15;10.30;99.90
20504;DHT22;10410;51.046;6.980;2022-12-20T21:30:15;10.30;99.90
20504;DHT22;10410;51.046;6.980;2022-12-20T21:37:16;10.30;99.90
20504;DHT22;10410;51.046;6.980;2022-12-20T21:44:17;10.30;99.90
20504;DHT22;10410;51.046;6.980;2022-12-20T21:51:20;10.30;99.90
20504;DHT22;10410;51.046;6.980;2022-12-20T21:58:20;10.30;99.90
20504;DHT22;10410;51.046;6.980;2022-12-20T22:05:21;10.30;99.90
20504;DHT22;10410;51.046;6.980;2022-12-20T22:12:21;10.30;99.90
20504;DHT22;10410;51.046;6.980;2022-12-20T22:19:22;10.30;99.90
20504;DHT22;10410;51.046;6.980;2022-12-20T22:26:25;10.30;99.90
20504;DHT22;10410;51.046;6.980;2022-12-20T22:33:25;10.20;99.90
20504;DHT22;10410;51.046;6.980;2022-12-20T22:40:26;10.30;99.90
20504;DHT22;10410;51.046;6.980;2022-12-20T22:47:26;10.20;99.90
20504;DHT22;10410;51.046;6.980;2022-12-20T22:54:27;10.20;99.90
20504;DHT22;10410;51.046;6.980;2022-12-20T23:01:27;10.20;99.90
20504;DHT22;10410;51.046;6.980;2022-12-20T23:08:30;10.20;99.90
20504;DHT22;10410;51.046;6.980;2022-12-20T23:15:31;10.20;99.90
20504;DHT22;10410;51.046;6.980;2022-12-20T23:22:40;10.20;99.90
20504;DHT22;10410;51.046;6.980;2022-12-20T23:29:40;10.20;99.90
20504;DHT22;10410;51.046;6.980;2022-12-20T23:36:41;10.20;99.90
20504;DHT22;10410;51.046;6.980;2022-12-20T23:43:41;10.20;99.90
20504;DHT22;10410;51.046;6.980;2022-12-20T23:50:42;10.20;99.90
20504;DHT22;10410;51.046;6.980;2022-12-20T23:57:42;10.20;99.90
